createdAt,value
2023-04-16T00:01:12.204Z,8.89
2023-04-16T00:03:38.735Z,8.95
2023-04-16T00:06:05.553Z,8.91
2023-04-16T00:08:31.847Z,8.86
2023-04-16T00:10:58.195Z,8.94
2023-04-16T00:13:24.477Z,8.87
2023-04-16T00:15:50.793Z,8.84
2023-04-16T00:18:17.119Z,8.81
2023-04-16T00:20:43.458Z,8.82
2023-04-16T00:23:09.741Z,8.83
2023-04-16T00:25:36.081Z,8.85
2023-04-16T00:28:02.426Z,8.85
2023-04-16T00:30:28.769Z,8.81
2023-04-16T00:32:58.052Z,8.86
2023-04-16T00:35:24.384Z,8.80
2023-04-16T00:37:50.671Z,8.80
2023-04-16T00:40:17.127Z,8.78
2023-04-16T00:42:43.444Z,8.78
2023-04-16T00:45:10.671Z,8.80
2023-04-16T00:47:37.141Z,8.80
2023-04-16T00:50:04.463Z,8.81
2023-04-16T00:52:32.607Z,8.83
2023-04-16T00:54:59.269Z,8.82
2023-04-16T00:57:25.575Z,8.81
2023-04-16T00:59:51.924Z,8.80
2023-04-16T01:02:18.404Z,8.81
2023-04-16T01:04:44.827Z,8.84
2023-04-16T01:07:11.194Z,8.85
2023-04-16T01:09:37.504Z,8.84
2023-04-16T01:12:03.937Z,8.81
2023-04-16T01:14:30.293Z,8.83
2023-04-16T01:16:56.654Z,8.85
2023-04-16T01:19:22.955Z,8.84
2023-04-16T01:21:49.261Z,8.87
2023-04-16T01:24:15.565Z,8.87
2023-04-16T01:26:41.881Z,8.87
2023-04-16T01:29:08.426Z,8.85
2023-04-16T01:31:35.160Z,8.86
2023-04-16T01:34:01.528Z,8.88
2023-04-16T01:36:27.819Z,8.87
2023-04-16T01:38:54.130Z,8.82
2023-04-16T01:41:20.398Z,8.80
2023-04-16T01:43:46.771Z,8.81
2023-04-16T01:46:26.942Z,8.87
2023-04-16T01:48:53.847Z,8.82
2023-04-16T01:51:20.881Z,8.87
2023-04-16T01:53:47.313Z,8.92
2023-04-16T01:56:13.615Z,8.86
2023-04-16T01:58:39.927Z,8.91
2023-04-16T02:01:06.251Z,8.85
2023-04-16T02:03:32.942Z,8.84
2023-04-16T02:05:59.523Z,8.82
2023-04-16T02:08:25.842Z,8.87
2023-04-16T02:10:52.333Z,8.90
2023-04-16T02:13:20.182Z,8.96
2023-04-16T02:15:50.564Z,8.89
2023-04-16T02:18:17.033Z,8.85
2023-04-16T02:20:44.801Z,8.82
2023-04-16T02:23:11.947Z,8.82
2023-04-16T02:25:40.974Z,8.82
2023-04-16T02:28:11.562Z,8.82
2023-04-16T02:30:39.128Z,8.78
2023-04-16T02:33:06.543Z,8.79
2023-04-16T02:35:36.769Z,8.80
2023-04-16T02:38:04.209Z,8.79
2023-04-16T02:40:30.976Z,8.79
2023-04-16T02:42:57.895Z,8.80
2023-04-16T02:45:24.826Z,8.79
2023-04-16T02:47:51.430Z,8.87
2023-04-16T02:50:18.055Z,8.82
2023-04-16T02:52:44.464Z,8.78
2023-04-16T02:55:11.358Z,8.80
2023-04-16T02:57:37.656Z,8.80
2023-04-16T03:00:04.465Z,8.80
2023-04-16T03:02:31.005Z,8.80
2023-04-16T03:04:57.496Z,8.81
2023-04-16T03:07:23.872Z,8.89
2023-04-16T03:09:50.156Z,8.88
2023-04-16T03:12:24.806Z,8.82
2023-04-16T03:14:51.518Z,8.84
2023-04-16T03:17:18.106Z,8.80
2023-04-16T03:19:44.430Z,8.80
2023-04-16T03:22:10.755Z,8.81
2023-04-16T03:24:37.091Z,8.86
2023-04-16T03:27:03.518Z,8.79
2023-04-16T03:29:29.848Z,8.77
2023-04-16T03:31:56.170Z,8.78
2023-04-16T03:34:22.472Z,8.71
2023-04-16T03:36:48.795Z,8.71
2023-04-16T03:39:15.097Z,8.82
2023-04-16T03:41:41.398Z,8.68
2023-04-16T03:44:07.730Z,8.69
2023-04-16T03:46:34.111Z,8.66
2023-04-16T03:49:03.435Z,8.65
2023-04-16T03:51:29.744Z,8.57
2023-04-16T03:53:56.061Z,8.61
2023-04-16T03:56:22.395Z,8.55
2023-04-16T03:58:48.703Z,8.56
2023-04-16T04:01:15.009Z,8.54
2023-04-16T04:03:41.563Z,8.52
2023-04-16T04:06:08.896Z,8.47
2023-04-16T04:08:35.415Z,8.49
2023-04-16T04:11:01.753Z,8.46
2023-04-16T04:13:28.099Z,8.43
2023-04-16T04:15:54.443Z,8.43
2023-04-16T04:18:20.837Z,8.42
2023-04-16T04:20:47.195Z,8.42
2023-04-16T04:23:13.489Z,8.46
2023-04-16T04:25:39.792Z,8.39
2023-04-16T04:28:06.082Z,8.33
2023-04-16T04:30:32.438Z,8.31
2023-04-16T04:32:58.806Z,8.33
2023-04-16T04:35:25.177Z,8.34
2023-04-16T04:37:51.466Z,8.37
2023-04-16T04:40:17.785Z,8.33
2023-04-16T04:42:44.140Z,8.31
2023-04-16T04:45:10.807Z,8.29
2023-04-16T04:47:37.213Z,8.30
2023-04-16T04:50:03.836Z,8.31
2023-04-16T04:52:30.114Z,8.29
2023-04-16T04:54:57.149Z,8.32
2023-04-16T04:57:23.558Z,8.34
2023-04-16T04:59:49.877Z,8.37
2023-04-16T05:02:16.319Z,8.33
2023-04-16T05:04:42.724Z,8.31
2023-04-16T05:07:09.083Z,8.30
2023-04-16T05:09:35.446Z,8.31
2023-04-16T05:12:01.816Z,8.29
2023-04-16T05:14:28.187Z,8.31
2023-04-16T05:16:54.516Z,8.29
2023-04-16T05:19:20.917Z,8.28
2023-04-16T05:21:47.229Z,8.29
2023-04-16T05:24:15.003Z,8.25
2023-04-16T05:26:41.446Z,8.27
2023-04-16T05:29:07.944Z,8.32
2023-04-16T05:31:34.380Z,8.29
2023-04-16T05:34:00.744Z,8.28
2023-04-16T05:36:27.578Z,8.34
2023-04-16T05:38:53.901Z,8.29
2023-04-16T05:41:20.194Z,8.31
2023-04-16T05:43:46.472Z,8.31
2023-04-16T05:46:12.851Z,8.33
2023-04-16T05:48:39.216Z,8.34
2023-04-16T05:51:05.656Z,8.33
2023-04-16T05:53:32.048Z,8.27
2023-04-16T05:55:58.317Z,8.31
2023-04-16T05:58:24.643Z,8.31
2023-04-16T06:00:51.058Z,8.34
2023-04-16T06:03:17.421Z,8.40
2023-04-16T06:05:44.372Z,8.35
2023-04-16T06:08:10.948Z,8.33
2023-04-16T06:10:37.472Z,8.44
2023-04-16T06:13:03.774Z,8.41
2023-04-16T06:15:30.090Z,8.40
2023-04-16T06:17:56.755Z,8.44
2023-04-16T06:20:23.474Z,8.49
2023-04-16T06:22:49.908Z,8.43
2023-04-16T06:25:18.010Z,8.53
2023-04-16T06:27:44.581Z,8.51
2023-04-16T06:30:15.770Z,8.50
2023-04-16T06:32:43.537Z,8.53
2023-04-16T06:35:10.255Z,8.53
2023-04-16T06:37:36.612Z,8.60
2023-04-16T06:40:03.015Z,8.59
2023-04-16T06:42:29.507Z,8.60
2023-04-16T06:44:55.931Z,8.65
2023-04-16T06:47:22.356Z,8.56
2023-04-16T06:49:48.654Z,8.59
2023-04-16T06:52:15.025Z,8.63
2023-04-16T06:54:44.150Z,8.66
2023-04-16T06:57:10.433Z,8.67
2023-04-16T06:59:36.757Z,8.68
2023-04-16T07:02:03.214Z,8.70
2023-04-16T07:04:29.664Z,8.75
2023-04-16T07:06:55.961Z,8.78
2023-04-16T07:09:22.277Z,8.76
2023-04-16T07:11:48.612Z,8.81
2023-04-16T07:14:14.946Z,8.75
2023-04-16T07:16:41.302Z,8.80
2023-04-16T07:19:07.779Z,8.75
2023-04-16T07:21:34.415Z,8.79
2023-04-16T07:24:00.758Z,8.85
2023-04-16T07:26:27.105Z,8.86
2023-04-16T07:28:53.435Z,8.86
2023-04-16T07:31:19.915Z,8.88
2023-04-16T07:33:46.309Z,8.84
2023-04-16T07:36:12.613Z,8.89
2023-04-16T07:38:38.928Z,8.91
2023-04-16T07:41:05.400Z,8.93
2023-04-16T07:43:31.703Z,8.93
2023-04-16T07:45:58.020Z,8.93
2023-04-16T07:48:24.442Z,8.93
2023-04-16T07:50:50.776Z,8.90
2023-04-16T07:53:17.084Z,8.85
2023-04-16T07:55:43.506Z,8.82
2023-04-16T07:58:09.852Z,8.81
2023-04-16T08:00:36.260Z,8.83
2023-04-16T08:03:02.743Z,8.78
2023-04-16T08:05:29.422Z,8.85
2023-04-16T08:07:55.881Z,8.91
2023-04-16T08:10:22.306Z,8.91
2023-04-16T08:12:48.807Z,8.88
2023-04-16T08:15:15.147Z,8.92
2023-04-16T08:17:41.461Z,8.93
2023-04-16T08:20:08.194Z,9.02
2023-04-16T08:22:34.517Z,9.01
2023-04-16T08:25:02.835Z,8.98
2023-04-16T08:27:29.225Z,8.97
2023-04-16T08:29:55.972Z,8.98
2023-04-16T08:32:26.114Z,9.01
2023-04-16T08:34:52.504Z,9.02
2023-04-16T08:37:18.836Z,9.02
2023-04-16T08:39:45.132Z,9.00
2023-04-16T08:42:18.877Z,9.05
2023-04-16T08:44:49.249Z,9.01
2023-04-16T08:47:16.390Z,8.96
2023-04-16T08:49:45.683Z,8.99
2023-04-16T08:52:18.414Z,9.01
2023-04-16T08:55:00.014Z,8.93
2023-04-16T08:57:33.940Z,8.93
2023-04-16T09:00:03.550Z,8.95
2023-04-16T09:02:31.186Z,8.95
2023-04-16T09:05:00.025Z,8.98
2023-04-16T09:07:29.428Z,9.07
2023-04-16T09:09:59.450Z,9.10
2023-04-16T09:12:26.175Z,9.19
2023-04-16T09:14:52.640Z,9.28
2023-04-16T09:17:19.563Z,9.44
2023-04-16T09:19:46.311Z,9.36
2023-04-16T09:22:12.676Z,9.42
2023-04-16T09:24:39.056Z,9.46
2023-04-16T09:27:05.662Z,9.52
2023-04-16T09:29:39.797Z,9.58
2023-04-16T09:32:08.654Z,9.59
2023-04-16T09:34:53.622Z,9.62
2023-04-16T09:37:20.375Z,9.58
2023-04-16T09:39:54.802Z,9.60
2023-04-16T09:42:23.364Z,9.63
2023-04-16T09:44:49.961Z,9.60
2023-04-16T09:47:16.336Z,9.58
2023-04-16T09:49:45.450Z,9.57
2023-04-16T09:52:19.976Z,9.61
2023-04-16T09:54:50.935Z,9.57
2023-04-16T09:57:22.691Z,9.63
2023-04-16T09:59:53.552Z,9.63
2023-04-16T10:02:20.299Z,9.58
2023-04-16T10:04:51.650Z,9.59
2023-04-16T10:07:18.931Z,9.54
2023-04-16T10:09:47.113Z,9.57
2023-04-16T10:12:13.432Z,9.60
2023-04-16T10:14:40.143Z,9.62
2023-04-16T10:17:07.078Z,9.65
2023-04-16T10:19:33.781Z,9.73
2023-04-16T10:22:00.326Z,9.84
2023-04-16T10:24:28.295Z,9.95
2023-04-16T10:26:55.263Z,9.96
2023-04-16T10:29:22.488Z,10.11
2023-04-16T10:31:50.115Z,10.23
2023-04-16T10:34:17.675Z,10.30
2023-04-16T10:36:49.072Z,10.11
2023-04-16T10:39:19.014Z,10.12
2023-04-16T10:41:45.662Z,10.18
2023-04-16T10:44:12.294Z,10.04
2023-04-16T10:46:43.135Z,10.13
2023-04-16T10:49:22.626Z,10.22
2023-04-16T10:51:53.289Z,10.31
2023-04-16T10:54:23.773Z,10.48
2023-04-16T10:56:50.554Z,10.57
2023-04-16T10:59:21.524Z,10.60
2023-04-16T11:01:50.854Z,10.56
2023-04-16T11:04:20.144Z,10.53
2023-04-16T11:07:07.778Z,10.43
2023-04-16T11:09:57.002Z,10.44
2023-04-16T11:12:33.230Z,10.38
2023-04-16T11:15:03.961Z,10.40
2023-04-16T11:17:38.005Z,10.38
2023-04-16T11:20:25.710Z,10.47
2023-04-16T11:22:56.712Z,10.50
2023-04-16T11:25:28.508Z,10.49
2023-04-16T11:27:55.142Z,10.52
2023-04-16T11:30:35.213Z,10.52
2023-04-16T11:33:08.689Z,10.54
2023-04-16T11:35:35.483Z,10.61
2023-04-16T11:38:01.891Z,10.61
2023-04-16T11:40:31.388Z,10.59
2023-04-16T11:43:13.480Z,10.52
2023-04-16T11:45:53.323Z,10.44
2023-04-16T11:48:19.720Z,10.44
2023-04-16T11:50:55.973Z,10.53
2023-04-16T11:53:24.181Z,10.58
2023-04-16T11:55:50.618Z,10.61
2023-04-16T11:58:17.015Z,10.54
2023-04-16T12:00:43.870Z,10.59
2023-04-16T12:03:10.558Z,10.60
2023-04-16T12:05:39.231Z,10.62
2023-04-16T12:08:09.966Z,10.59
2023-04-16T12:10:52.208Z,10.55
2023-04-16T12:13:18.735Z,10.49
2023-04-16T12:15:56.182Z,10.44
2023-04-16T12:18:25.109Z,10.32
2023-04-16T12:20:51.522Z,10.23
2023-04-16T12:23:31.148Z,10.18
2023-04-16T12:25:58.221Z,10.26
2023-04-16T12:28:31.791Z,10.27
2023-04-16T12:30:58.247Z,10.22
2023-04-16T12:33:24.891Z,10.22
2023-04-16T12:35:51.241Z,10.33
2023-04-16T12:38:17.576Z,10.28
2023-04-16T12:40:43.955Z,10.19
2023-04-16T12:43:10.601Z,10.16
2023-04-16T12:45:38.086Z,10.14
2023-04-16T12:48:04.562Z,10.04
2023-04-16T12:50:31.164Z,10.01
2023-04-16T12:52:58.421Z,10.04
2023-04-16T12:55:25.388Z,9.99
2023-04-16T12:57:52.110Z,9.93
2023-04-16T13:00:19.650Z,9.81
2023-04-16T13:02:46.284Z,9.78
2023-04-16T13:05:12.869Z,9.75
2023-04-16T13:07:39.207Z,9.67
2023-04-16T13:10:06.374Z,9.66
2023-04-16T13:12:32.576Z,9.64
2023-04-16T13:14:59.109Z,9.65
2023-04-16T13:17:25.424Z,9.62
2023-04-16T13:19:51.737Z,9.62
2023-04-16T13:22:18.126Z,9.60
2023-04-16T13:24:44.546Z,9.56
2023-04-16T13:27:10.933Z,9.54
2023-04-16T13:32:14.133Z,9.62
2023-04-16T13:34:40.688Z,9.65
2023-04-16T13:37:07.159Z,9.75
2023-04-16T13:39:33.618Z,9.69
2023-04-16T13:41:59.995Z,9.73
2023-04-16T13:44:28.657Z,9.83
2023-04-16T13:46:55.081Z,9.73
2023-04-16T13:49:21.536Z,9.79
2023-04-16T13:51:47.929Z,9.84
2023-04-16T13:54:14.231Z,9.96
2023-04-16T13:56:40.555Z,10.04
2023-04-16T13:59:09.027Z,10.05
2023-04-16T14:01:35.565Z,10.03
2023-04-16T14:04:01.984Z,10.02
2023-04-16T14:06:31.011Z,10.07
2023-04-16T14:08:57.300Z,10.10
2023-04-16T14:11:23.651Z,10.16
2023-04-16T14:13:50.058Z,10.08
2023-04-16T14:16:16.433Z,10.12
2023-04-16T14:18:42.841Z,10.14
2023-04-16T14:21:09.204Z,10.14
2023-04-16T14:23:35.522Z,10.15
2023-04-16T14:26:01.893Z,10.19
2023-04-16T14:28:31.000Z,10.17
2023-04-16T14:30:57.462Z,10.16
2023-04-16T14:33:23.777Z,10.20
2023-04-16T14:35:50.254Z,10.18
2023-04-16T14:38:16.647Z,10.18
2023-04-16T14:40:43.009Z,10.17
2023-04-16T14:45:44.504Z,10.07
2023-04-16T14:48:10.835Z,10.01
2023-04-16T14:50:37.211Z,10.03
2023-04-16T14:53:06.667Z,9.88
2023-04-16T14:55:33.045Z,9.79
2023-04-16T14:57:59.600Z,9.76
2023-04-16T15:00:26.078Z,9.67
2023-04-16T15:02:53.441Z,9.69
2023-04-16T15:05:19.955Z,9.63
2023-04-16T15:07:46.277Z,9.64
2023-04-16T15:10:13.291Z,9.59
2023-04-16T15:12:39.835Z,9.60
2023-04-16T15:15:07.511Z,9.59
2023-04-16T15:17:33.933Z,9.61
2023-04-16T15:20:02.331Z,9.58
2023-04-16T15:22:31.206Z,9.50
2023-04-16T15:24:57.512Z,9.55
2023-04-16T15:27:23.870Z,9.55
2023-04-16T15:29:50.159Z,9.60
2023-04-16T15:32:16.700Z,9.58
2023-04-16T15:34:43.064Z,9.60
2023-04-16T15:37:09.428Z,9.57
2023-04-16T15:39:35.782Z,9.54
2023-04-16T15:42:06.548Z,9.53
2023-04-16T15:44:34.562Z,9.52
2023-04-16T15:47:00.947Z,9.54
2023-04-16T15:49:27.258Z,9.49
2023-04-16T15:51:53.741Z,9.49
2023-04-16T15:54:20.214Z,9.52
2023-04-16T15:56:47.003Z,9.48
2023-04-16T15:59:13.460Z,9.44
2023-04-16T16:01:39.868Z,9.41
2023-04-16T16:04:07.359Z,9.39
2023-04-16T16:06:34.294Z,9.36
2023-04-16T16:09:00.609Z,9.33
2023-04-16T16:11:27.442Z,9.37
2023-04-16T16:13:53.765Z,9.30
2023-04-16T16:16:20.105Z,9.30
2023-04-16T16:18:46.450Z,9.32
2023-04-16T16:21:12.758Z,9.30
2023-04-16T16:23:39.029Z,9.29
2023-04-16T16:26:05.338Z,9.26
2023-04-16T16:28:32.110Z,9.26
2023-04-16T16:30:58.400Z,9.22
2023-04-16T16:33:24.737Z,9.24
2023-04-16T16:35:52.334Z,9.20
2023-04-16T16:38:18.702Z,9.13
2023-04-16T16:40:44.989Z,9.11
2023-04-16T16:43:11.305Z,9.09
2023-04-16T16:45:38.463Z,9.06
2023-04-16T16:48:04.857Z,9.08
2023-04-16T16:50:32.164Z,9.11
2023-04-16T16:52:59.387Z,9.06
2023-04-16T16:55:26.318Z,8.96
2023-04-16T16:57:53.102Z,8.97
2023-04-16T17:00:19.624Z,8.91
2023-04-16T17:02:46.376Z,8.93
2023-04-16T17:05:12.845Z,8.94
2023-04-16T17:07:39.219Z,8.87
2023-04-16T17:10:06.984Z,8.88
2023-04-16T17:12:33.498Z,8.85
2023-04-16T17:14:59.840Z,8.82
2023-04-16T17:17:26.957Z,8.87
2023-04-16T17:19:53.525Z,8.81
2023-04-16T17:22:22.187Z,8.75
2023-04-16T17:24:50.652Z,8.72
2023-04-16T17:27:16.943Z,8.71
2023-04-16T17:29:43.535Z,8.70
2023-04-16T17:32:10.048Z,8.67
2023-04-16T17:34:36.423Z,8.66
2023-04-16T17:37:02.737Z,8.64
2023-04-16T17:39:29.118Z,8.62
2023-04-16T17:41:55.409Z,8.60
2023-04-16T17:44:21.704Z,8.59
2023-04-16T17:46:48.015Z,8.58
2023-04-16T17:49:14.361Z,8.54
2023-04-16T17:51:41.543Z,8.55
2023-04-16T17:54:09.392Z,8.54
2023-04-16T17:56:35.919Z,8.53
2023-04-16T17:59:02.255Z,8.50
2023-04-16T18:01:28.730Z,8.46
2023-04-16T18:03:55.432Z,8.40
2023-04-16T18:06:22.068Z,8.41
2023-04-16T18:08:48.352Z,8.35
2023-04-16T18:11:14.684Z,8.32
2023-04-16T18:13:41.055Z,8.32
2023-04-16T18:16:14.235Z,8.30
2023-04-16T18:18:40.477Z,8.27
2023-04-16T18:21:06.796Z,8.20
2023-04-16T18:23:33.146Z,8.23
2023-04-16T18:25:59.980Z,8.23
2023-04-16T18:28:27.098Z,8.22
2023-04-16T18:30:53.443Z,8.17
2023-04-16T18:33:48.666Z,8.19
2023-04-16T18:36:03.105Z,8.16
2023-04-16T18:38:29.596Z,8.12
2023-04-16T18:40:56.276Z,8.12
2023-04-16T18:43:22.956Z,8.11
2023-04-16T18:45:49.434Z,8.15
2023-04-16T18:48:15.715Z,8.08
2023-04-16T18:50:42.254Z,8.08
2023-04-16T18:53:12.222Z,8.17
2023-04-16T18:58:03.676Z,8.08
2023-04-16T19:00:30.043Z,8.15
2023-04-16T19:02:56.447Z,8.07
2023-04-16T19:05:22.808Z,8.06
2023-04-16T19:07:49.141Z,8.02
2023-04-16T19:10:15.519Z,8.03
2023-04-16T19:12:41.865Z,8.00
2023-04-16T19:15:11.394Z,7.99
2023-04-16T19:17:37.746Z,7.98
2023-04-16T19:20:04.475Z,7.98
2023-04-16T19:22:30.779Z,7.98
2023-04-16T19:24:57.128Z,7.95
2023-04-16T19:27:23.444Z,7.92
2023-04-16T19:29:49.783Z,7.92
2023-04-16T19:32:16.115Z,7.94
2023-04-16T19:34:42.411Z,7.96
2023-04-16T19:37:08.716Z,7.92
2023-04-16T19:39:35.056Z,7.86
2023-04-16T19:42:01.381Z,7.86
2023-04-16T19:44:27.746Z,7.89
2023-04-16T19:46:54.055Z,7.84
2023-04-16T19:49:20.384Z,7.85
2023-04-16T19:51:46.692Z,7.83
2023-04-16T19:54:13.049Z,7.81
2023-04-16T19:56:39.400Z,7.82
2023-04-16T19:59:05.706Z,7.81
2023-04-16T20:01:32.057Z,7.75
2023-04-16T20:03:58.556Z,7.78
2023-04-16T20:06:24.862Z,7.76
2023-04-16T20:08:51.165Z,7.73
2023-04-16T20:11:17.490Z,7.72
2023-04-16T20:13:47.468Z,7.70
2023-04-16T20:16:14.032Z,7.68
2023-04-16T20:18:40.671Z,7.65
2023-04-16T20:21:07.756Z,7.63
2023-04-16T20:23:34.080Z,7.64
2023-04-16T20:26:00.509Z,7.64
2023-04-16T20:28:26.898Z,7.63
2023-04-16T20:30:53.217Z,7.63
2023-04-16T20:33:19.532Z,7.62
2023-04-16T20:35:46.976Z,7.63
2023-04-16T20:38:13.286Z,7.63
2023-04-16T20:40:39.582Z,7.65
2023-04-16T20:43:05.887Z,7.68
2023-04-16T20:45:32.260Z,7.67
2023-04-16T20:47:59.027Z,7.66
2023-04-16T20:50:25.427Z,7.65
2023-04-16T20:52:51.862Z,7.61
2023-04-16T20:55:18.582Z,7.58
2023-04-16T20:57:44.903Z,7.56
2023-04-16T21:00:14.985Z,7.54
2023-04-16T21:02:41.537Z,7.56
2023-04-16T21:05:08.464Z,7.54
2023-04-16T21:07:34.844Z,7.48
2023-04-16T21:10:01.196Z,7.41
2023-04-16T21:12:27.647Z,7.44
2023-04-16T21:14:53.966Z,7.43
2023-04-16T21:17:20.302Z,7.40
2023-04-16T21:19:46.641Z,7.42
2023-04-16T21:22:12.939Z,7.49
2023-04-16T21:24:39.267Z,7.40
2023-04-16T21:27:05.594Z,7.44
2023-04-16T21:29:32.527Z,7.39
2023-04-16T21:31:59.060Z,7.35
2023-04-16T21:34:25.495Z,7.32
2023-04-16T21:36:51.863Z,7.31
2023-04-16T21:39:18.205Z,7.26
2023-04-16T21:41:44.519Z,7.29
2023-04-16T21:44:11.056Z,7.26
2023-04-16T21:46:37.365Z,7.27
2023-04-16T21:49:03.725Z,7.23
2023-04-16T21:51:30.018Z,7.22
2023-04-16T21:53:56.973Z,7.25
2023-04-16T21:56:24.146Z,7.21
2023-04-16T21:58:51.666Z,7.14
2023-04-16T22:01:18.009Z,7.09
2023-04-16T22:03:44.759Z,7.07
2023-04-16T22:06:11.256Z,7.03
2023-04-16T22:08:37.619Z,6.97
2023-04-16T22:11:03.990Z,6.95
2023-04-16T22:13:31.062Z,6.94
2023-04-16T22:15:57.942Z,6.97
2023-04-16T22:18:24.349Z,6.91
2023-04-16T22:20:53.052Z,6.94
2023-04-16T22:23:19.343Z,6.95
2023-04-16T22:25:45.655Z,6.93
2023-04-16T22:28:12.017Z,6.92
2023-04-16T22:30:38.385Z,6.91
2023-04-16T22:33:04.890Z,6.91
2023-04-16T22:35:31.266Z,6.89
2023-04-16T22:37:57.598Z,6.85
2023-04-16T22:40:24.005Z,6.82
2023-04-16T22:42:50.363Z,6.81
2023-04-16T22:45:16.725Z,6.76
2023-04-16T22:47:43.033Z,6.70
2023-04-16T22:50:09.629Z,6.68
2023-04-16T22:52:36.452Z,6.72
2023-04-16T22:55:02.882Z,6.74
2023-04-16T22:57:29.196Z,6.70
2023-04-16T22:59:55.536Z,6.66
2023-04-16T23:02:21.890Z,6.65
2023-04-16T23:04:48.305Z,6.67
2023-04-16T23:07:15.134Z,6.70
2023-04-16T23:09:41.708Z,6.66
2023-04-16T23:12:08.267Z,6.62
2023-04-16T23:14:34.604Z,6.64
2023-04-16T23:17:00.908Z,6.63
2023-04-16T23:19:27.203Z,6.58
2023-04-16T23:21:53.536Z,6.60
2023-04-16T23:24:19.872Z,6.60
2023-04-16T23:26:46.218Z,6.64
2023-04-16T23:29:12.699Z,6.60
2023-04-16T23:31:39.307Z,6.57
2023-04-16T23:34:05.657Z,6.63
2023-04-16T23:36:34.521Z,6.57
2023-04-16T23:39:00.879Z,6.56
2023-04-16T23:41:27.226Z,6.58
2023-04-16T23:43:53.568Z,6.58
2023-04-16T23:46:19.929Z,6.60
2023-04-16T23:48:46.274Z,6.63
2023-04-16T23:51:12.622Z,6.61
2023-04-16T23:53:38.972Z,6.63
2023-04-16T23:56:05.658Z,6.63
2023-04-16T23:58:31.989Z,6.64
